Résultats

Telethon de Meyreuil course nature:8,5km. Édition 2018.

8 Km
24/11/2018 à 09:30:00 - Meyreuil (13)
83 arrivant(e)s.





Place▲ Temps Dossard Nom Prenom Categ #Categ Sexe #Sexe Club Vit Moy Diplôme Photo Partager
1 00:33:03 42 REGNERIE PASCAL M1M 1 M 1 TEAM PROVENCE ENDURANCE 15.43
2 00:33:55 53 FABRI CEDRIC M1M 2 M 2 15.04
3 00:34:37 49 ARWIAUD ERIC M2M 1 M 3 COURIR A MEYREUIL 14.73
4 00:34:58 45 THOMAS CLEMENT SEM 1 M 4 AIX ATHLE 14.59
5 00:37:50 9 CLAUDON JOSEPH SEM 2 M 5 13.48
6 00:39:05 47 MOISA CHRISTIAN M1M 3 M 6 13.05
7 00:39:12 90 BOU NICOLAS M1M 4 M 7 13.01
8 00:40:18 64 FERRETTI ANTHONY SEM 3 M 8 12.66
9 00:40:21 14 FAMECHON CHRISTOPHE M2M 2 M 9 CABALLO BLANCO 12.64
10 00:40:29 58 SCHNEIDER ERIC M1M 5 M 10 12.60
11 00:40:36 52 BENEDETTO GUY M3M 1 M 11 12.56
12 00:40:57 48 FABRI OLIVIER SEM 4 M 12 12.45
13 00:41:28 75 FIORI PHILIPPE SEM 5 M 13 12.30
14 00:41:40 37 NOUIRA BILEL SEM 6 M 14 KEEP KOOL 12.24
15 00:42:25 25 LOUVIOT JAMES M3M 2 M 15 SPEEDY CLUB DE PROVENCE 12.02
16 00:42:40 6 BONTAZ DAVID M1M 6 M 16 11.95
17 00:43:01 41 POINTES CHRISTOPHE M1M 7 M 17 11.86
18 00:43:07 67 ROS LIONEL M1M 8 M 18 11.83
19 00:43:07 23 LE-MOEL JEROME SEM 7 M 19 BCO 11.83
20 00:43:12 8 CATANZARO TONI SEM 8 M 20 11.81
21 00:43:16 55 ABRACHY FRANCK M2M 3 M 21 11.79
22 00:44:21 80 DUFAU GUILLAUME M1M 9 M 22 11.50
23 00:44:21 91 INCONNU DOS-91 M1M 10 M 23 11.50
24 00:44:21 89 BOU X M1M 11 M 24 11.50
25 00:44:22 54 ROSSI FREDERIC SEM 9 M 25 11.50
26 00:44:43 69 VINCENT KARINE M1F 1 F 1 11.41
27 00:44:43 68 SAINT-JEAN FREDERIC M1M 12 M 26 11.41
28 00:45:10 16 GUMB CEDRIC M1M 13 M 27 LFA TRETS 11.29
29 00:45:26 7 BORSOS JESSICA SEF 1 F 2 AIX ATHLE PROVENCE 11.23
30 00:46:04 87 MAUNE PASCAL M2M 4 M 28 11.07
31 00:46:04 51 SEBERIAN GUILLAUME SEM 10 M 29 11.07
32 00:46:39 50 CEDOUX JEAN-JACQUES M2M 5 M 30 10.93
33 00:47:34 32 METZ ANNE SEF 2 F 3 AIX ATHLE PROVENCE 10.72
34 00:47:34 73 GUERINI JEAN M2M 6 M 31 10.72
35 00:47:38 81 HEBTING PASCAL M2M 7 M 32 FOULEE DE GREASQUE 10.71
36 00:48:04 59 JIREAU JEREMY SEM 11 M 33 10.61
37 00:48:22 10 COIN CELINE SEF 3 F 4 LFA TRETS 10.54
38 00:49:07 39 PIAZZA ROMAIN SEM 12 M 34 10.38
39 00:50:02 19 GUTIERREZ MICKAEL M1M 14 M 35 10.19
40 00:50:26 60 CHAPUT MARIE SEF 4 F 5 10.11
41 00:50:28 85 BONNETY LAURENT M1M 15 M 36 10.11
42 00:51:06 83 AYME NATHALIE M1F 2 F 6 9.98
43 00:51:19 35 MOLINA JULIEN M1M 16 M 37 9.94
44 00:51:22 22 LAFFON STEPHAN M1M 17 M 38 9.93
45 00:51:42 4 AVOT MICHEL-HERVE M3M 3 M 39 AIX ATHLE PROVENCE 9.86
46 00:51:45 3 AGUSTIN JEAN-LOUIS M1M 18 M 40 SPEEDY CLUB DE PROVENCE 9.86
47 00:52:06 56 BILLON ALICE M1F 3 F 7 COURIR A MEYREUIL 9.79
48 00:52:06 65 PONSOT SYLVIE M2F 1 F 8 COURIR A MEYREUIL 9.79
49 00:52:07 86 SANSONE PIERRE M1M 19 M 41 9.79
50 00:52:15 15 FOUILLIT SEVERINE M2F 2 F 9 SPEEDY CLUB DE PROVENCE 9.76
51 00:52:15 72 PANVEL MARIE-LAURE M2F 3 F 10 9.76
52 00:52:15 40 PITRAT BERENGERE SEF 5 F 11 9.76
53 00:52:30 61 GAVINI VIRGINIE M1F 4 F 12 9.71
54 00:54:56 84 ESQUERRE VALERIE M1F 5 F 13 9.28
55 00:55:18 46 UNI MARIANNE M2F 4 F 14 COURIR A FUVEAU 9.22
56 00:55:52 57 GARCIA ROBUSTIANO M2M 8 M 42 COURIR A MEYREUIL 9.13
57 00:56:13 62 RICHIER CLAUDINE M1F 6 F 15 9.07
58 00:56:14 18 GUTIERREZ CINDY SEF 6 F 16 9.07
59 00:56:31 77 SVALDUEZ FRANCOISE M2F 5 F 17 9.02
60 01:00:02 74 GARCIA MARINE SEF 7 F 18 8.50
61 01:00:03 82 AYME LUCAS M1M 20 M 43 8.49
62 01:00:05 88 MATULIK ERIC M2M 9 M 44 8.49
63 01:00:33 63 LECARDONNEL JULIEN M1M 21 M 45 8.42
64 01:00:58 66 CEVIA FRANCIS M3M 4 M 46 8.37
65 01:01:46 21 KAMBOURIAN MARIE-CHARLOTTE SEF 8 F 19 8.26
66 01:02:06 12 ESTAIS JEAN-LUC SEM 13 M 47 8.21
67 01:02:06 70 BENNVENTI CLAUDE M4M 1 M 48 8.21
68 01:02:11 79 KASTLER ROLAND M4M 2 M 49 8.20
69 01:02:23 17 GUMB-EZEQUIEL ISALINA M1F 7 F 20 LFA TRETS 8.18
70 01:02:39 71 GEORGEON SUZANNE M3F 1 F 21 COURIR A MEYREUIL 8.14
71 01:03:19 11 DALLARD MARLENE M1F 8 F 22 8.05
72 01:03:20 43 RINAUDO NATHALIE M1F 9 F 23 8.05
73 01:03:47 30 MARX PATRICK M3M 5 M 50 COURIR A BOUC BEL AIR 8.00
74 01:05:01 5 BATLE MARTINE CAF 1 F 24 7.84
75 01:05:01 28 MARTINET JEAN-FRANCOIS M2M 10 M 51 7.84
76 01:05:01 13 ESTOUPAN STEPHANIE M1F 10 F 25 7.84
77 01:05:32 26 MAHIEU RUDY SEM 14 M 52 7.78
78 01:07:47 33 MICHEL LAURA SEF 9 F 26 7.52
79 01:09:06 1 ADAMEK STEPHANIE M1F 11 F 27 7.38
80 01:09:06 24 N:Anonyme 24 P:Anonyme 24 M1F 12 F 28 7.38
81 01:10:03 78 LACROIX JACQUES M3M 6 M 53 7.28
82 01:19:23 20 IMMORDINO ELENA SEF 10 F 29 6.42
83 01:20:39 76 VALDERAMA FABRICE M1M 22 M 54 6.32